Time;durP1;ratioP1;P1;durP2;ratioP2;P2;SDS_P1;SDS_P2;PMS_P1;PMS_P2;Temp;Humidity;BMP_temperature;BMP_pressure;BME280_temperature;BME280_humidity;BME280_pressure;Samples;Min_cycle;Max_cycle;Signal;HPM_P1;HPM_P2
2023/04/27 00:06:09;;;;;;;0.00;0.00;;;;;;;7.93;53.27;101390.88;15622753;28;20056;-50
2023/04/27 00:13:43;;;;;;;0.35;0.35;;;;;;;8.03;53.32;101381.78;15600331;28;20088;-49
2023/04/27 00:21:18;;;;;;;0.45;0.30;;;;;;;7.65;54.39;101384.34;15603677;28;20104;-50
2023/04/27 00:28:52;;;;;;;0.77;0.33;;;;;;;7.71;54.60;101380.97;15620183;28;20498;-50
2023/04/27 00:36:26;;;;;;;0.32;0.30;;;;;;;7.84;54.33;101385.75;15582901;28;20440;-49
2023/04/27 00:44:00;;;;;;;1.50;0.97;;;;;;;7.63;55.38;101391.69;15617596;28;20046;-50
2023/04/27 00:51:33;;;;;;;2.40;0.85;;;;;;;7.59;55.19;101395.72;15598331;28;20054;-51
2023/04/27 00:59:08;;;;;;;;;;;;;;;7.54;55.37;101401.59;15599100;28;20056;-52
2023/04/27 01:06:41;;;;;;;0.20;0.20;;;;;;;7.88;54.72;101395.06;15614965;28;19921;-50
2023/04/27 01:14:16;;;;;;;2.65;0.20;;;;;;;7.53;55.69;101404.44;15579067;28;20100;-51
2023/04/27 01:21:50;;;;;;;2.83;0.75;;;;;;;7.63;55.34;101405.88;15615525;28;20061;-50
2023/04/27 01:29:25;;;;;;;0.22;0.20;;;;;;;7.48;56.12;101409.47;15580348;28;20088;-49
2023/04/27 01:36:58;;;;;;;0.75;0.43;;;;;;;7.60;56.30;101418.75;15613262;28;20038;-50
2023/04/27 01:44:32;;;;;;;0.87;0.60;;;;;;;7.38;56.93;101426.53;15613490;28;20037;-50
2023/04/27 01:52:05;;;;;;;0.10;0.10;;;;;;;7.61;56.04;101423.13;15597204;28;20498;-50
2023/04/27 01:59:41;;;;;;;0.45;0.35;;;;;;;7.48;57.25;101437.00;15613091;28;20034;-49
2023/04/27 02:07:14;;;;;;;0.20;0.13;;;;;;;7.49;57.20;101437.84;15595877;28;20368;-49
2023/04/27 02:14:49;;;;;;;0.70;0.50;;;;;;;7.49;56.34;101445.84;15609224;28;20037;-53
2023/04/27 02:22:22;;;;;;;0.10;0.10;;;;;;;7.44;57.40;101445.53;15592109;28;20041;-48
2023/04/27 02:29:56;;;;;;;1.13;0.25;;;;;;;7.75;56.60;101450.94;15590101;28;20140;-49
2023/04/27 02:37:30;;;;;;;0.30;0.28;;;;;;;7.57;56.83;101445.84;15591896;28;20041;-51
2023/04/27 02:45:06;;;;;;;0.38;0.38;;;;;;;7.29;57.82;101456.13;15593819;28;20120;-49
2023/04/27 02:52:39;;;;;;;0.13;0.13;;;;;;;7.85;56.12;101451.56;15567168;28;20128;-50
2023/04/27 03:00:33;;;;;;;3.60;0.68;;;;;;;7.20;57.75;101460.63;15536651;28;20134;-53
2023/04/27 03:08:06;;;;;;;0.10;0.10;;;;;;;7.43;56.90;101460.75;15609620;28;20045;-50
2023/04/27 03:15:43;;;;;;;3.72;1.30;;;;;;;7.46;56.81;101454.19;15595076;28;20053;-50
2023/04/27 03:23:17;;;;;;;0.55;0.15;;;;;;;7.16;58.27;101473.47;15578134;28;20056;-50
2023/04/27 03:30:52;;;;;;;0.30;0.30;;;;;;;7.25;57.96;101481.47;15611362;28;20045;-50
2023/04/27 03:38:26;;;;;;;0.32;0.30;;;;;;;7.01;59.22;101490.38;15549190;28;20053;-49
2023/04/27 03:46:00;;;;;;;0.47;0.45;;;;;;;7.19;57.56;101495.53;15604883;28;20655;-48
2023/04/27 03:53:35;;;;;;;0.93;0.73;;;;;;;6.92;58.24;101500.22;15599881;28;20076;-51
2023/04/27 04:01:10;;;;;;;;;;;;;;;6.98;58.30;101506.72;15606996;28;20525;-49
2023/04/27 04:08:43;;;;;;;7.85;1.50;;;;;;;7.11;57.77;101507.03;15606148;28;19924;-50
2023/04/27 04:16:18;;;;;;;0.10;0.10;;;;;;;6.99;58.66;101509.19;15628044;28;20042;-49
2023/04/27 04:23:51;;;;;;;2.60;0.90;;;;;;;7.10;57.68;101527.56;15621820;28;20045;-50
2023/04/27 04:31:26;;;;;;;0.43;0.40;;;;;;;7.19;57.76;101531.06;15602693;28;20045;-47
2023/04/27 04:39:00;;;;;;;4.57;0.85;;;;;;;7.56;57.26;101532.34;15602794;28;20132;-48
2023/04/27 04:46:36;;;;;;;0.43;0.33;;;;;;;7.52;56.46;101536.34;15619052;28;20037;-47
2023/04/27 04:54:09;;;;;;;3.70;0.98;;;;;;;7.61;56.99;101540.66;15616990;28;20665;-53
2023/04/27 05:01:43;;;;;;;0.55;0.55;;;;;;;7.20;57.98;101546.06;15612446;28;20042;-49
2023/04/27 05:09:19;;;;;;;0.32;0.32;;;;;;;7.52;57.87;101553.22;15619892;28;20077;-47
2023/04/27 05:16:53;;;;;;;1.17;0.68;;;;;;;7.69;56.98;101545.97;15618351;28;20053;-49
2023/04/27 05:24:27;;;;;;;0.22;0.20;;;;;;;7.69;56.66;101548.63;15617175;28;20641;-49
2023/04/27 05:32:01;;;;;;;0.10;0.10;;;;;;;7.51;57.82;101551.53;15599052;28;20050;-47
2023/04/27 05:39:34;;;;;;;0.45;0.30;;;;;;;7.57;57.50;101556.19;15616654;28;20095;-47
2023/04/27 05:47:08;;;;;;;2.17;0.82;;;;;;;7.59;56.72;101551.50;15615427;28;20052;-50
2023/04/27 05:54:46;;;;;;;1.30;0.45;;;;;;;7.99;54.01;101554.25;15614585;28;20125;-51
2023/04/27 06:02:21;;;;;;;0.93;0.22;;;;;;;8.46;52.67;101561.41;15615040;28;20399;-48
2023/04/27 06:09:54;;;;;;;0.47;0.40;;;;;;;8.60;52.41;101571.34;15614510;28;20049;-48
2023/04/27 06:17:28;;;;;;;0.27;0.27;;;;;;;8.66;51.07;101581.31;15593655;28;20128;-49
2023/04/27 06:25:02;;;;;;;0.20;0.20;;;;;;;8.41;52.13;101586.00;15594168;28;20303;-50
2023/04/27 06:32:36;;;;;;;;;;;;;;;8.70;51.78;101585.31;15599773;28;20037;-48
2023/04/27 06:40:09;;;;;;;2.20;0.40;;;;;;;8.53;51.38;101592.59;15623676;28;19921;-47
2023/04/27 06:47:44;;;;;;;0.38;0.20;;;;;;;8.76;50.54;101592.63;15613543;28;20129;-50
2023/04/27 06:55:17;;;;;;;0.35;0.10;;;;;;;8.86;50.79;101595.06;15613579;28;20099;-52
2023/04/27 07:02:51;;;;;;;0.40;0.40;;;;;;;8.84;51.00;101597.94;15612406;28;20052;-47
2023/04/27 07:10:25;;;;;;;10.75;0.60;;;;;;;11.40;44.78;101599.09;15613774;28;20095;-51
2023/04/27 07:18:00;;;;;;;2.03;0.77;;;;;;;11.67;42.92;101603.66;15590251;28;20469;-46
2023/04/27 07:25:34;;;;;;;0.05;0.05;;;;;;;11.63;42.14;101601.56;15616191;28;20037;-49
2023/04/27 07:33:09;;;;;;;1.17;0.60;;;;;;;10.28;44.91;101604.97;15606341;28;20041;-50
2023/04/27 07:40:48;;;;;;;0.70;0.68;;;;;;;10.42;45.89;101605.97;15613925;28;20048;-49
2023/04/27 07:48:23;;;;;;;1.77;0.25;;;;;;;10.06;46.45;101614.75;15605742;28;20100;-47
2023/04/27 07:55:56;;;;;;;1.10;0.30;;;;;;;9.57;46.88;101623.31;15623002;28;20099;-48
2023/04/27 08:03:30;;;;;;;1.53;0.70;;;;;;;11.81;43.18;101622.59;15604872;28;20056;-49
2023/04/27 08:11:04;;;;;;;1.77;1.02;;;;;;;12.30;42.31;101606.31;15581743;28;20435;-45
2023/04/27 08:18:40;;;;;;;1.92;0.28;;;;;;;10.85;43.03;101633.72;15620649;28;20049;-49
2023/04/27 08:26:15;;;;;;;0.40;0.35;;;;;;;12.88;43.20;101622.06;15619705;28;20064;-47
2023/04/27 08:33:49;;;;;;;1.08;0.60;;;;;;;11.50;41.14;101630.00;15617824;28;20054;-47
2023/04/27 08:41:23;;;;;;;0.40;0.40;;;;;;;10.36;45.03;101622.81;15619896;28;20553;-48
2023/04/27 08:48:57;;;;;;;0.90;0.50;;;;;;;9.90;47.42;101645.28;15602599;28;20137;-49
2023/04/27 08:56:31;;;;;;;0.22;0.22;;;;;;;8.77;48.43;101639.84;15602374;28;20046;-48
2023/04/27 09:04:06;;;;;;;1.50;0.75;;;;;;;8.87;49.11;101642.28;15607638;28;20656;-53
2023/04/27 09:11:39;;;;;;;0.73;0.20;;;;;;;8.83;49.16;101639.13;15600847;28;20537;-50
2023/04/27 09:19:23;;;;;;;1.38;0.40;;;;;;;10.28;46.57;101633.66;15600610;28;20514;-47
2023/04/27 09:26:56;;;;;;;5.05;1.00;;;;;;;10.15;45.97;101624.38;15599007;28;20103;-46
2023/04/27 09:34:39;;;;;;;0.90;0.57;;;;;;;10.12;46.02;101623.94;15581045;28;20084;-47
2023/04/27 09:42:14;;;;;;;2.03;0.40;;;;;;;12.81;44.28;101602.34;15599664;28;20308;-47
2023/04/27 09:49:50;;;;;;;1.65;0.30;;;;;;;11.70;40.36;101613.19;15607279;28;20399;-47
2023/04/27 09:57:33;;;;;;;0.75;0.32;;;;;;;10.71;43.14;101608.56;15594804;28;20052;-49
2023/04/27 10:05:26;;;;;;;0.88;0.45;;;;;;;9.79;46.76;101610.88;15612010;28;20048;-47
2023/04/27 10:13:01;;;;;;;0.57;0.52;;;;;;;10.50;46.48;101605.88;15580589;28;20402;-50
2023/04/27 10:20:37;;;;;;;0.73;0.50;;;;;;;11.68;43.05;101593.72;15595256;28;20462;-48
2023/04/27 10:28:16;;;;;;;1.90;1.02;;;;;;;11.92;41.04;101601.34;15613130;28;20041;-49
2023/04/27 10:35:56;;;;;;;0.60;0.47;;;;;;;13.07;40.24;101596.19;15604855;28;20092;-48
2023/04/27 10:43:32;;;;;;;0.40;0.20;;;;;;;13.58;37.03;101590.19;15594716;28;20038;-48
2023/04/27 10:51:06;;;;;;;0.77;0.32;;;;;;;11.57;40.61;101594.28;15609173;28;20057;-52
2023/04/27 10:58:40;;;;;;;0.20;0.20;;;;;;;12.16;40.04;101575.81;15609414;28;20137;-50
2023/04/27 11:06:14;;;;;;;1.30;0.35;;;;;;;12.20;38.69;101576.25;15609997;28;20449;-49
2023/04/27 11:13:51;;;;;;;0.10;0.10;;;;;;;13.91;34.67;101571.25;15611368;28;20053;-50
2023/04/27 11:21:27;;;;;;;0.20;0.10;;;;;;;14.94;30.83;101560.38;15595536;28;20049;-52
2023/04/27 11:29:03;;;;;;;0.30;0.20;;;;;;;15.50;31.47;101556.78;15609030;28;20557;-48
2023/04/27 11:36:38;;;;;;;0.70;0.45;;;;;;;14.13;31.36;101559.13;15592040;28;20038;-49
2023/04/27 11:44:11;;;;;;;1.17;0.30;;;;;;;12.91;35.21;101589.31;15590269;28;20103;-50
2023/04/27 11:51:47;;;;;;;0.32;0.10;;;;;;;12.31;37.66;101591.84;15575050;28;20530;-50
2023/04/27 11:59:22;;;;;;;2.03;0.63;;;;;;;12.23;37.17;101602.78;15608035;28;20046;-50
2023/04/27 12:06:57;;;;;;;0.20;0.20;;;;;;;12.68;35.98;101609.38;15608617;28;20113;-48
2023/04/27 12:14:31;;;;;;;0.57;0.08;;;;;;;12.55;33.06;101595.03;15616104;28;20050;-49
2023/04/27 12:22:06;;;;;;;0.10;0.10;;;;;;;11.94;36.71;101593.09;15619840;28;20104;-47
2023/04/27 12:29:39;;;;;;;0.60;0.22;;;;;;;14.02;35.50;101601.09;15620505;28;20049;-46
2023/04/27 12:37:13;;;;;;;0.45;0.30;;;;;;;13.66;33.23;101601.63;15615128;28;20048;-49
2023/04/27 12:44:46;;;;;;;6.18;0.30;;;;;;;12.72;35.46;101602.53;15603151;28;20041;-50
2023/04/27 12:52:21;;;;;;;;;;;;;;;15.29;31.74;101596.72;15621066;28;20120;-49
2023/04/27 12:59:55;;;;;;;1.08;0.57;;;;;;;14.39;32.96;101593.28;15620020;28;19921;-50
2023/04/27 13:07:29;;;;;;;0.17;0.17;;;;;;;13.42;33.79;101603.06;15601375;28;20076;-50
2023/04/27 13:15:02;;;;;;;0.57;0.22;;;;;;;12.70;35.14;101593.81;15617188;28;20602;-50
2023/04/27 13:22:38;;;;;;;0.13;0.10;;;;;;;12.40;36.04;101598.72;15616950;28;20084;-50
2023/04/27 13:30:11;;;;;;;0.30;0.30;;;;;;;12.34;36.19;101599.50;15617650;28;20042;-53
2023/04/27 13:37:46;;;;;;;0.65;0.52;;;;;;;13.17;37.08;101594.72;15584560;28;20064;-51
2023/04/27 13:45:20;;;;;;;0.73;0.30;;;;;;;14.17;33.98;101586.53;15596730;28;20063;-51
2023/04/27 13:52:54;;;;;;;0.10;0.05;;;;;;;13.84;34.13;101597.41;15608877;28;20534;-48
2023/04/27 14:00:32;;;;;;;1.33;0.50;;;;;;;13.30;34.18;101587.72;15596376;28;20050;-51
2023/04/27 14:08:07;;;;;;;0.05;0.03;;;;;;;12.09;33.90;101588.41;15580694;28;20052;-52
2023/04/27 14:15:40;;;;;;;0.57;0.20;;;;;;;13.25;32.12;101577.56;15612295;28;20045;-50
2023/04/27 14:23:15;;;;;;;0.43;0.43;;;;;;;13.07;32.46;101588.94;15613067;28;20041;-47
2023/04/27 14:30:48;;;;;;;0.15;0.13;;;;;;;12.85;32.79;101587.44;15613823;28;20045;-50
2023/04/27 14:38:22;;;;;;;0.68;0.30;;;;;;;12.71;31.57;101589.28;15612923;28;20498;-52
2023/04/27 14:45:55;;;;;;;0.30;0.30;;;;;;;13.43;35.25;101579.59;15612732;28;20095;-49
2023/04/27 14:53:29;;;;;;;1.02;0.20;;;;;;;12.40;32.15;101582.56;15611146;28;20120;-51
2023/04/27 15:01:02;;;;;;;0.43;0.20;;;;;;;12.83;32.73;101584.94;15611217;28;20037;-51
2023/04/27 15:08:38;;;;;;;1.02;0.25;;;;;;;12.53;33.46;101587.13;15610899;28;20132;-50
2023/04/27 15:16:11;;;;;;;2.83;0.32;;;;;;;13.56;32.49;101582.31;15592994;28;20439;-50
2023/04/27 15:23:45;;;;;;;3.27;0.27;;;;;;;12.49;31.99;101575.94;15593513;28;20536;-56
2023/04/27 15:31:18;;;;;;;0.10;0.10;;;;;;;12.40;33.87;101585.25;15593440;28;20533;-52
2023/04/27 15:38:53;;;;;;;2.97;0.60;;;;;;;12.32;34.36;101581.91;15592505;28;20511;-49
2023/04/27 15:46:26;;;;;;;0.35;0.10;;;;;;;11.84;36.31;101571.09;15613937;28;20065;-52
2023/04/27 15:54:01;;;;;;;0.40;0.20;;;;;;;11.80;36.92;101565.25;15603715;28;20511;-55
2023/04/27 16:01:34;;;;;;;0.63;0.10;;;;;;;12.28;35.04;101561.78;15620256;28;20307;-50
2023/04/27 16:09:10;;;;;;;0.60;0.35;;;;;;;12.48;33.76;101555.44;15591452;28;20117;-50
2023/04/27 16:16:44;;;;;;;0.13;0.00;;;;;;;11.29;33.98;101545.88;15619252;28;20041;-50
2023/04/27 16:24:19;;;;;;;3.03;0.40;;;;;;;11.55;35.42;101542.53;15603113;28;20058;-51
2023/04/27 16:31:52;;;;;;;2.60;0.40;;;;;;;11.18;35.62;101544.53;15567799;23;20046;-50
2023/04/27 16:39:27;;;;;;;0.28;0.08;;;;;;;11.69;34.68;101534.34;15580509;28;20659;-47
2023/04/27 16:47:03;;;;;;;0.40;0.30;;;;;;;11.93;35.21;101529.53;15586225;28;20046;-50
2023/04/27 16:54:38;;;;;;;0.25;0.10;;;;;;;12.28;34.92;101541.09;15568923;28;20046;-50
2023/04/27 17:02:11;;;;;;;0.30;0.30;;;;;;;11.97;35.39;101536.19;15561220;28;20038;-53
2023/04/27 17:09:46;;;;;;;0.40;0.40;;;;;;;12.22;35.99;101541.91;15571260;28;20530;-48
2023/04/27 17:17:19;;;;;;;0.25;0.20;;;;;;;11.87;36.75;101535.72;15559402;28;20108;-49
2023/04/27 17:24:53;;;;;;;0.27;0.27;;;;;;;11.62;34.11;101513.84;15577804;28;20063;-47
2023/04/27 17:32:26;;;;;;;7.22;0.40;;;;;;;11.89;37.66;101537.22;15540672;28;20053;-49
2023/04/27 17:40:00;;;;;;;6.97;0.52;;;;;;;11.71;37.97;101542.25;15550162;28;20124;-46
2023/04/27 17:47:34;;;;;;;0.15;0.15;;;;;;;11.60;39.20;101537.41;15527238;28;20140;-54
2023/04/27 17:55:08;;;;;;;0.17;0.13;;;;;;;11.46;39.09;101540.00;15535649;28;20650;-47
2023/04/27 18:02:41;;;;;;;0.82;0.45;;;;;;;11.26;39.57;101549.78;15514777;28;20151;-49
2023/04/27 18:10:16;;;;;;;0.40;0.20;;;;;;;10.94;39.87;101553.84;15573462;28;20048;-49
2023/04/27 18:17:49;;;;;;;3.92;0.63;;;;;;;10.91;40.30;101554.22;15594460;28;20042;-53
2023/04/27 18:25:24;;;;;;;0.10;0.10;;;;;;;10.72;39.58;101567.28;15592213;28;20050;-49
2023/04/27 18:32:57;;;;;;;0.88;0.25;;;;;;;10.40;42.62;101576.63;15567906;28;20037;-45
2023/04/27 18:40:31;;;;;;;0.80;0.30;;;;;;;9.92;43.85;101586.06;15556238;28;20503;-51
2023/04/27 18:48:05;;;;;;;0.63;0.30;;;;;;;9.67;45.18;101596.25;15604723;28;20084;-55
2023/04/27 18:55:39;;;;;;;0.55;0.22;;;;;;;9.42;45.37;101585.78;15572018;28;20042;-51
2023/04/27 19:03:12;;;;;;;4.03;0.80;;;;;;;9.05;47.70;101594.63;15592375;28;20042;-49
2023/04/27 19:10:46;;;;;;;2.38;0.70;;;;;;;9.09;47.18;101598.63;15570445;28;20506;-48
2023/04/27 19:18:20;;;;;;;0.40;0.28;;;;;;;9.06;47.77;101600.81;15564626;28;20042;-50
2023/04/27 19:25:55;;;;;;;0.50;0.50;;;;;;;8.64;48.79;101597.56;15569217;28;20542;-47
2023/04/27 19:33:28;;;;;;;0.20;0.20;;;;;;;8.51;48.32;101588.44;15602856;28;20046;-47
2023/04/27 19:41:05;;;;;;;1.10;0.30;;;;;;;8.29;49.83;101588.19;15595696;28;20045;-47
2023/04/27 19:48:39;;;;;;;1.95;0.90;;;;;;;8.03;49.50;101585.81;15554472;28;20053;-49
2023/04/27 19:56:13;;;;;;;1.73;0.70;;;;;;;7.74;51.93;101589.06;15593404;28;20052;-50
2023/04/27 20:03:46;;;;;;;3.20;1.25;;;;;;;7.51;53.15;101590.78;15566186;28;20436;-47
2023/04/27 20:11:20;;;;;;;0.87;0.63;;;;;;;7.14;51.14;101587.63;15591231;28;20041;-49
2023/04/27 20:18:54;;;;;;;0.43;0.30;;;;;;;6.87;50.58;101583.44;15559576;28;20381;-50
2023/04/27 20:26:28;;;;;;;0.15;0.15;;;;;;;7.16;50.36;101584.78;15586654;28;20049;-49
2023/04/27 20:34:01;;;;;;;2.35;1.17;;;;;;;7.09;51.63;101589.13;15579919;28;20058;-51
2023/04/27 20:41:37;;;;;;;2.07;0.63;;;;;;;6.98;51.79;101579.59;15588665;28;20052;-50
2023/04/27 20:49:10;;;;;;;1.20;0.55;;;;;;;6.89;53.24;101583.25;15562346;28;20049;-52
2023/04/27 20:56:45;;;;;;;1.25;0.88;;;;;;;6.83;53.16;101571.44;15577441;28;20399;-51
2023/04/27 21:04:18;;;;;;;0.73;0.70;;;;;;;6.61;54.83;101572.88;15554469;28;20042;-47
2023/04/27 21:11:53;;;;;;;1.05;0.50;;;;;;;6.46;55.58;101577.19;15570526;28;21262;-52
2023/04/27 21:19:29;;;;;;;0.30;0.30;;;;;;;6.22;55.66;101567.28;15585243;28;20042;-53
2023/04/27 21:27:03;;;;;;;0.73;0.67;;;;;;;6.23;55.49;101562.78;15586797;28;20041;-52
2023/04/27 21:34:36;;;;;;;0.52;0.47;;;;;;;5.79;57.68;101560.25;15594747;28;20480;-49
2023/04/27 21:42:15;;;;;;;0.45;0.30;;;;;;;5.70;57.09;101527.41;15551764;28;20060;-49
2023/04/27 21:49:48;;;;;;;0.30;0.20;;;;;;;5.85;57.58;101559.59;15563737;28;20034;-47
2023/04/27 21:57:22;;;;;;;2.97;1.10;;;;;;;5.79;56.37;101560.25;15531327;28;20514;-47
2023/04/27 22:04:55;;;;;;;0.70;0.50;;;;;;;5.60;55.63;101570.13;15577960;28;20046;-48
2023/04/27 22:12:29;;;;;;;1.23;0.57;;;;;;;5.66;56.55;101567.84;15560158;28;20045;-53
2023/04/27 22:20:04;;;;;;;0.52;0.30;;;;;;;5.52;57.41;101563.91;15567392;28;20129;-47
2023/04/27 22:27:38;;;;;;;0.93;0.35;;;;;;;5.50;56.87;101565.88;15600907;23;20100;-51
2023/04/27 22:35:12;;;;;;;0.00;0.00;;;;;;;5.33;58.09;101565.78;15654172;28;20087;-49
2023/04/27 22:42:46;;;;;;;0.00;0.00;;;;;;;5.50;57.04;101577.41;15636587;28;20064;-52
2023/04/27 22:50:19;;;;;;;0.00;0.00;;;;;;;5.33;57.40;101564.97;15667359;28;20136;-50
2023/04/27 22:57:53;;;;;;;0.20;0.17;;;;;;;5.12;58.04;101567.94;15634507;28;20484;-50
2023/04/27 23:05:27;;;;;;;0.38;0.38;;;;;;;5.02;57.70;101562.72;15630898;28;20049;-49
2023/04/27 23:13:03;;;;;;;0.20;0.20;;;;;;;4.87;59.17;101556.28;15633064;28;20158;-49
2023/04/27 23:20:35;;;;;;;0.03;0.03;;;;;;;4.76;60.05;101540.56;15652991;28;20052;-53
2023/04/27 23:28:10;;;;;;;7.87;0.33;;;;;;;4.81;60.68;101538.28;15632431;28;20524;-51
2023/04/27 23:35:42;;;;;;;0.10;0.10;;;;;;;4.80;61.05;101534.78;15673392;28;20053;-51
2023/04/27 23:43:16;;;;;;;0.15;0.15;;;;;;;4.69;60.23;101545.63;15613473;28;20045;-50
2023/04/27 23:50:49;;;;;;;0.20;0.20;;;;;;;4.43;60.82;101524.28;15669606;28;20127;-50
2023/04/27 23:58:23;;;;;;;0.20;0.20;;;;;;;4.41;60.17;101522.75;15630510;28;20037;-51
